createdAt,value
2018-01-07T00:00:31.953Z,0
2018-01-07T00:01:31.644Z,0
2018-01-07T00:02:31.882Z,0
2018-01-07T00:03:31.317Z,0
2018-01-07T00:04:31.037Z,0
2018-01-07T00:05:31.011Z,0
2018-01-07T00:06:30.997Z,0
2018-01-07T00:07:31.233Z,0
2018-01-07T00:08:31.216Z,0
2018-01-07T00:09:31.452Z,0
2018-01-07T00:10:31.439Z,0
2018-01-07T00:11:31.154Z,0
2018-01-07T00:12:31.132Z,0
2018-01-07T00:13:31.102Z,0
2018-01-07T00:14:31.343Z,0
2018-01-07T00:15:31.594Z,0
2018-01-07T00:16:31.304Z,0
2018-01-07T00:17:31.294Z,0
2018-01-07T00:18:31.261Z,0
2018-01-07T00:19:31.240Z,0
2018-01-07T00:20:30.958Z,0
2018-01-07T00:21:30.672Z,0
2018-01-07T00:22:30.914Z,0
2018-01-07T00:23:30.893Z,0
2018-01-07T00:24:30.871Z,0
2018-01-07T00:25:30.849Z,0
2018-01-07T00:26:31.083Z,0
2018-01-07T00:27:30.800Z,0
2018-01-07T00:28:31.325Z,0
2018-01-07T00:29:31.342Z,0
2018-01-07T00:30:30.999Z,0
2018-01-07T00:31:30.982Z,0
2018-01-07T00:32:30.691Z,0
2018-01-07T00:33:30.679Z,0
2018-01-07T00:34:30.384Z,0
2018-01-07T00:35:30.896Z,0
2018-01-07T00:36:30.869Z,0
2018-01-07T00:37:30.604Z,0
2018-01-07T00:38:31.146Z,0
2018-01-07T00:39:30.549Z,0
2018-01-07T00:40:30.530Z,0
2018-01-07T00:41:30.559Z,0
2018-01-07T00:42:30.745Z,0
2018-01-07T00:43:30.190Z,0
2018-01-07T00:44:30.456Z,0
2018-01-07T00:45:30.434Z,0
2018-01-07T00:46:30.133Z,0
2018-01-07T00:47:30.371Z,0
2018-01-07T00:48:30.876Z,0
2018-01-07T00:49:30.593Z,0
2018-01-07T00:50:30.313Z,0
2018-01-07T00:51:30.285Z,0
2018-01-07T00:52:30.799Z,0
2018-01-07T00:53:30.506Z,0
2018-01-07T00:54:30.221Z,0
2018-01-07T00:55:29.955Z,0
2018-01-07T00:56:29.926Z,0
2018-01-07T00:57:30.158Z,0
2018-01-07T00:58:30.127Z,0
2018-01-07T00:59:29.844Z,0
2018-01-07T01:00:30.087Z,0
2018-01-07T01:01:30.072Z,0
2018-01-07T01:02:30.038Z,0
2018-01-07T01:03:30.562Z,0
2018-01-07T01:04:30.265Z,0
2018-01-07T01:05:29.976Z,0
2018-01-07T01:06:29.688Z,0
2018-01-07T01:07:30.205Z,0
2018-01-07T01:08:30.182Z,0
2018-01-07T01:09:30.158Z,0
2018-01-07T01:10:30.409Z,0
2018-01-07T01:11:29.852Z,0
2018-01-07T01:12:29.839Z,0
2018-01-07T01:13:29.802Z,0
2018-01-07T01:14:30.052Z,0
2018-01-07T01:15:29.502Z,0
2018-01-07T01:16:30.012Z,0
2018-01-07T01:17:29.981Z,0
2018-01-07T01:18:29.962Z,0
2018-01-07T01:19:29.941Z,0
2018-01-07T01:20:30.189Z,0
2018-01-07T01:21:29.900Z,0
2018-01-07T01:22:29.611Z,0
2018-01-07T01:23:29.859Z,0
2018-01-07T01:24:29.621Z,0
2018-01-07T01:25:29.814Z,0
2018-01-07T01:26:29.532Z,0
2018-01-07T01:27:30.101Z,0
2018-01-07T01:28:29.505Z,0
2018-01-07T01:29:29.455Z,0
2018-01-07T01:30:29.701Z,0
2018-01-07T01:31:29.687Z,0
2018-01-07T01:32:29.149Z,0
2018-01-07T01:33:29.368Z,0
2018-01-07T01:34:29.136Z,0
2018-01-07T01:35:29.592Z,0
2018-01-07T01:36:29.307Z,0
2018-01-07T01:37:29.589Z,0
2018-01-07T01:38:29.258Z,0
2018-01-07T01:39:29.506Z,0
2018-01-07T01:40:29.218Z,0
2018-01-07T01:41:29.211Z,0
2018-01-07T01:42:29.175Z,0
2018-01-07T01:43:29.415Z,0
2018-01-07T01:44:28.916Z,0
2018-01-07T01:45:29.385Z,0
2018-01-07T01:46:29.365Z,0
2018-01-07T01:47:29.064Z,0
2018-01-07T01:48:30.282Z,0
2018-01-07T01:49:29.286Z,0
2018-01-07T01:50:29.267Z,0
2018-01-07T01:51:28.985Z,0
2018-01-07T01:52:29.223Z,0
2018-01-07T01:53:28.411Z,0
2018-01-07T01:54:29.185Z,0
2018-01-07T01:55:28.623Z,0
2018-01-07T01:56:29.399Z,0
2018-01-07T01:57:29.114Z,0
2018-01-07T01:58:29.096Z,0
2018-01-07T01:59:28.812Z,0
2018-01-07T02:00:28.527Z,0
2018-01-07T02:01:29.307Z,0
2018-01-07T02:02:28.740Z,0
2018-01-07T02:03:28.725Z,0
2018-01-07T02:04:28.705Z,0
2018-01-07T02:05:28.411Z,0
2018-01-07T02:06:28.924Z,0
2018-01-07T02:07:28.627Z,0
2018-01-07T02:08:28.603Z,0
2018-01-07T02:09:28.846Z,0
2018-01-07T02:10:28.831Z,0
2018-01-07T02:11:28.543Z,0
2018-01-07T02:12:28.520Z,0
2018-01-07T02:13:28.766Z,0
2018-01-07T02:14:29.015Z,0
2018-01-07T02:15:27.924Z,0
2018-01-07T02:16:28.187Z,0
2018-01-07T02:17:28.675Z,0
2018-01-07T02:18:28.932Z,0
2018-01-07T02:19:28.642Z,0
2018-01-07T02:20:28.355Z,0
2018-01-07T02:21:28.059Z,0
2018-01-07T02:22:28.299Z,0
2018-01-07T02:23:28.553Z,0
2018-01-07T02:24:28.804Z,0
2018-01-07T02:25:28.236Z,0
2018-01-07T02:26:28.484Z,0
2018-01-07T02:27:28.505Z,0
2018-01-07T02:28:28.447Z,0
2018-01-07T02:29:28.428Z,0
2018-01-07T02:30:28.607Z,0
2018-01-07T02:31:28.374Z,0
2018-01-07T02:32:28.380Z,0
2018-01-07T02:33:27.801Z,0
2018-01-07T02:34:27.520Z,0
2018-01-07T02:35:28.335Z,0
2018-01-07T02:36:28.266Z,0
2018-01-07T02:37:28.247Z,0
2018-01-07T02:38:27.957Z,0
2018-01-07T02:39:27.939Z,0
2018-01-07T02:40:28.202Z,0
2018-01-07T02:41:27.898Z,0
2018-01-07T02:42:27.873Z,0
2018-01-07T02:43:27.856Z,0
2018-01-07T02:44:27.557Z,0
2018-01-07T02:45:28.070Z,0
2018-01-07T02:46:28.334Z,0
2018-01-07T02:47:27.491Z,0
2018-01-07T02:48:27.478Z,0
2018-01-07T02:49:27.719Z,0
2018-01-07T02:50:27.971Z,0
2018-01-07T02:51:27.698Z,0
2018-01-07T02:52:27.396Z,0
2018-01-07T02:53:27.908Z,0
2018-01-07T02:54:27.351Z,0
2018-01-07T02:55:28.125Z,0
2018-01-07T02:56:27.298Z,0
2018-01-07T02:57:27.558Z,0
2018-01-07T02:58:27.536Z,0
2018-01-07T02:59:27.764Z,0
2018-01-07T03:00:27.230Z,0
2018-01-07T03:01:26.991Z,0
2018-01-07T03:02:27.429Z,0
2018-01-07T03:03:27.939Z,0
2018-01-07T03:04:27.136Z,0
2018-01-07T03:05:27.401Z,0
2018-01-07T03:06:27.883Z,0
2018-01-07T03:07:27.876Z,0
2018-01-07T03:08:27.583Z,0
2018-01-07T03:09:27.813Z,0
2018-01-07T03:10:27.006Z,0
2018-01-07T03:11:26.710Z,0
2018-01-07T03:12:27.757Z,0
2018-01-07T03:13:27.488Z,0
2018-01-07T03:14:27.467Z,0
2018-01-07T03:15:27.698Z,0
2018-01-07T03:16:27.677Z,0
2018-01-07T03:17:27.666Z,0
2018-01-07T03:18:26.822Z,0
2018-01-07T03:19:27.330Z,0
2018-01-07T03:20:26.511Z,0
2018-01-07T03:21:27.017Z,0
2018-01-07T03:22:27.011Z,0
2018-01-07T03:23:26.979Z,0
2018-01-07T03:24:27.213Z,0
2018-01-07T03:25:27.466Z,0
2018-01-07T03:26:27.446Z,0
2018-01-07T03:27:26.623Z,0
2018-01-07T03:28:26.865Z,0
2018-01-07T03:29:27.114Z,0
2018-01-07T03:30:26.837Z,0
2018-01-07T03:31:27.078Z,0
2018-01-07T03:32:26.786Z,0
2018-01-07T03:33:26.759Z,0
2018-01-07T03:34:26.480Z,0
2018-01-07T03:35:26.454Z,0
2018-01-07T03:36:26.694Z,0
2018-01-07T03:37:26.688Z,0
2018-01-07T03:38:26.927Z,0
2018-01-07T03:39:26.632Z,0
2018-01-07T03:40:26.607Z,0
2018-01-07T03:41:26.320Z,0
2018-01-07T03:42:26.829Z,0
2018-01-07T03:43:26.802Z,0
2018-01-07T03:44:26.532Z,0
2018-01-07T03:45:26.499Z,0
2018-01-07T03:46:26.473Z,0
2018-01-07T03:47:26.447Z,0
2018-01-07T03:48:26.699Z,0
2018-01-07T03:49:26.410Z,0
2018-01-07T03:50:26.383Z,0
2018-01-07T03:51:26.886Z,0
2018-01-07T03:52:26.614Z,0
2018-01-07T03:53:25.792Z,0
2018-01-07T03:54:26.301Z,0
2018-01-07T03:55:26.804Z,0
2018-01-07T03:56:26.254Z,0
2018-01-07T03:57:25.708Z,0
2018-01-07T03:58:26.481Z,0
2018-01-07T03:59:26.190Z,0
2018-01-07T04:00:26.169Z,0
2018-01-07T04:01:25.884Z,0
2018-01-07T04:02:26.132Z,0
2018-01-07T04:03:26.645Z,0
2018-01-07T04:04:25.828Z,0
2018-01-07T04:05:26.333Z,0
2018-01-07T04:06:26.037Z,0
2018-01-07T04:07:26.025Z,0
2018-01-07T04:08:25.731Z,0
2018-01-07T04:09:26.504Z,0
2018-01-07T04:10:26.217Z,0
2018-01-07T04:11:26.464Z,0
2018-01-07T04:12:26.172Z,0
2018-01-07T04:13:26.156Z,0
2018-01-07T04:14:25.604Z,0
2018-01-07T04:15:26.102Z,0
2018-01-07T04:16:26.085Z,0
2018-01-07T04:17:25.532Z,0
2018-01-07T04:18:26.048Z,0
2018-01-07T04:19:25.497Z,0
2018-01-07T04:20:25.734Z,0
2018-01-07T04:21:25.971Z,0
2018-01-07T04:22:25.690Z,0
2018-01-07T04:23:25.932Z,0
2018-01-07T04:24:25.920Z,0
2018-01-07T04:25:25.369Z,0
2018-01-07T04:26:25.609Z,0
2018-01-07T04:27:25.850Z,0
2018-01-07T04:28:26.091Z,0
2018-01-07T04:29:25.538Z,0
2018-01-07T04:30:26.253Z,0
2018-01-07T04:31:25.229Z,0
2018-01-07T04:32:25.737Z,0
2018-01-07T04:33:25.465Z,0
2018-01-07T04:34:25.950Z,0
2018-01-07T04:35:25.405Z,0
2018-01-07T04:36:25.651Z,0
2018-01-07T04:37:25.894Z,0
2018-01-07T04:38:25.078Z,0
2018-01-07T04:39:25.368Z,0
2018-01-07T04:40:25.826Z,0
2018-01-07T04:41:25.805Z,0
2018-01-07T04:42:25.793Z,0
2018-01-07T04:43:25.502Z,0
2018-01-07T04:44:25.489Z,0
2018-01-07T04:45:25.191Z,0
2018-01-07T04:46:25.164Z,0
2018-01-07T04:47:25.405Z,0
2018-01-07T04:48:25.389Z,0
2018-01-07T04:49:25.098Z,0
2018-01-07T04:50:25.342Z,0
2018-01-07T04:51:25.057Z,0
2018-01-07T04:52:25.305Z,0
2018-01-07T04:53:25.026Z,0
2018-01-07T04:54:25.252Z,0
2018-01-07T04:55:24.971Z,0
2018-01-07T04:56:25.624Z,0
2018-01-07T04:57:25.243Z,0
2018-01-07T04:58:24.901Z,0
2018-01-07T04:59:25.138Z,0
2018-01-07T05:00:24.859Z,0
2018-01-07T05:01:24.575Z,0
2018-01-07T05:02:25.353Z,0
2018-01-07T05:03:24.792Z,0
2018-01-07T05:04:25.309Z,0
2018-01-07T05:05:25.026Z,0
2018-01-07T05:06:25.280Z,0
2018-01-07T05:07:24.702Z,0
2018-01-07T05:08:24.681Z,0
2018-01-07T05:09:24.930Z,0
2018-01-07T05:10:24.648Z,0
2018-01-07T05:11:24.625Z,0
2018-01-07T05:12:24.641Z,0
2018-01-07T05:13:24.885Z,0
2018-01-07T05:14:25.095Z,0
2018-01-07T05:15:24.555Z,0
2018-01-07T05:16:24.530Z,0
2018-01-07T05:17:24.760Z,0
2018-01-07T05:18:24.459Z,0
2018-01-07T05:19:24.434Z,0
2018-01-07T05:20:24.679Z,0
2018-01-07T05:21:24.657Z,0
2018-01-07T05:22:24.902Z,0
2018-01-07T05:23:24.095Z,0
2018-01-07T05:24:24.321Z,0
2018-01-07T05:25:24.571Z,0
2018-01-07T05:26:24.288Z,0
2018-01-07T05:27:24.001Z,0
2018-01-07T05:28:24.247Z,0
2018-01-07T05:29:23.950Z,0
2018-01-07T05:30:24.194Z,0
2018-01-07T05:31:24.175Z,0
2018-01-07T05:33:24.134Z,0
2018-01-07T05:34:24.109Z,0
2018-01-07T05:35:23.818Z,0
2018-01-07T05:36:23.800Z,0
2018-01-07T05:37:24.583Z,0
2018-01-07T05:38:24.288Z,0
2018-01-07T05:39:24.282Z,0
2018-01-07T05:40:24.241Z,0
2018-01-07T05:41:23.687Z,0
2018-01-07T05:42:23.666Z,0
2018-01-07T05:43:23.954Z,0
2018-01-07T05:44:23.622Z,0
2018-01-07T05:45:24.128Z,0
2018-01-07T05:46:24.109Z,0
2018-01-07T05:47:23.553Z,0
2018-01-07T05:48:24.378Z,0
2018-01-07T05:49:23.771Z,0
2018-01-07T05:50:23.752Z,0
2018-01-07T05:51:24.267Z,0
2018-01-07T05:52:23.450Z,0
2018-01-07T05:53:23.949Z,0
2018-01-07T05:54:23.931Z,0
2018-01-07T05:55:23.382Z,0
2018-01-07T05:56:23.882Z,0
2018-01-07T05:57:23.867Z,0
2018-01-07T05:58:23.362Z,0
2018-01-07T05:59:24.119Z,0
2018-01-07T06:00:24.082Z,0
2018-01-07T06:01:23.507Z,0
2018-01-07T06:02:23.495Z,0
2018-01-07T06:03:23.739Z,0
2018-01-07T06:04:23.702Z,0
2018-01-07T06:05:23.691Z,0
2018-01-07T06:06:23.452Z,0
2018-01-07T06:07:22.844Z,0
2018-01-07T06:08:23.887Z,0
2018-01-07T06:09:23.070Z,0
2018-01-07T06:10:23.310Z,0
2018-01-07T06:11:23.027Z,0
2018-01-07T06:12:23.272Z,0
2018-01-07T06:13:23.240Z,0
2018-01-07T06:14:23.483Z,0
2018-01-07T06:15:23.733Z,0
2018-01-07T06:16:22.906Z,0
2018-01-07T06:17:23.421Z,0
2018-01-07T06:18:23.132Z,0
2018-01-07T06:19:23.110Z,0
2018-01-07T06:20:23.087Z,0
2018-01-07T06:21:23.332Z,0
2018-01-07T06:22:23.308Z,0
2018-01-07T06:23:23.019Z,0
2018-01-07T06:24:23.271Z,0
2018-01-07T06:25:22.992Z,0
2018-01-07T06:26:22.971Z,0
2018-01-07T06:27:23.235Z,0
2018-01-07T06:28:22.912Z,0
2018-01-07T06:29:23.423Z,0
2018-01-07T06:30:23.345Z,0
2018-01-07T06:31:22.844Z,0
2018-01-07T06:32:23.100Z,0
2018-01-07T06:33:22.798Z,0
2018-01-07T06:34:23.297Z,0
2018-01-07T06:35:23.015Z,0
2018-01-07T06:36:22.740Z,0
2018-01-07T06:37:23.231Z,0
2018-01-07T06:38:23.237Z,0
2018-01-07T06:39:22.664Z,0
2018-01-07T06:40:22.932Z,0
2018-01-07T06:41:22.631Z,0
2018-01-07T06:42:22.877Z,0
2018-01-07T06:43:22.844Z,0
2018-01-07T06:44:22.590Z,0
2018-01-07T06:45:22.798Z,0
2018-01-07T06:46:22.795Z,0
2018-01-07T06:47:22.744Z,0
2018-01-07T06:48:22.456Z,0
2018-01-07T06:49:22.441Z,0
2018-01-07T06:50:22.687Z,0
2018-01-07T06:51:22.659Z,0
2018-01-07T06:52:22.371Z,0
2018-01-07T06:53:22.902Z,0
2018-01-07T06:54:22.588Z,0
2018-01-07T06:55:22.032Z,0
2018-01-07T06:56:22.554Z,0
2018-01-07T06:57:22.520Z,0
2018-01-07T06:58:22.804Z,0
2018-01-07T06:59:22.471Z,0
2018-01-07T07:00:22.456Z,0
2018-01-07T07:01:22.186Z,0
2018-01-07T07:02:22.411Z,0
2018-01-07T07:03:21.602Z,0
2018-01-07T07:04:22.374Z,0
2018-01-07T07:05:22.089Z,0
2018-01-07T07:06:22.594Z,0
2018-01-07T07:07:22.042Z,0
2018-01-07T07:08:21.750Z,0
2018-01-07T07:09:22.256Z,0
2018-01-07T07:10:21.964Z,0
2018-01-07T07:11:22.225Z,0
2018-01-07T07:12:21.650Z,0
2018-01-07T07:13:21.635Z,0
2018-01-07T07:14:21.879Z,0
2018-01-07T07:15:22.121Z,0
2018-01-07T07:16:21.302Z,0
2018-01-07T07:17:22.069Z,0
2018-01-07T07:18:21.787Z,0
2018-01-07T07:19:21.501Z,0
2018-01-07T07:20:22.012Z,0
2018-01-07T07:21:21.444Z,0
2018-01-07T07:22:21.962Z,0
2018-01-07T07:23:21.932Z,0
2018-01-07T07:24:21.643Z,0
2018-01-07T07:25:21.882Z,0
2018-01-07T07:26:22.129Z,0
2018-01-07T07:27:21.574Z,0
2018-01-07T07:28:21.812Z,0
2018-01-07T07:29:21.594Z,0
2018-01-07T07:30:21.558Z,0
2018-01-07T07:31:21.485Z,0
2018-01-07T07:32:21.221Z,0
2018-01-07T07:33:21.711Z,0
2018-01-07T07:34:21.679Z,0
2018-01-07T07:35:20.859Z,0
2018-01-07T07:36:20.838Z,0
2018-01-07T07:37:21.882Z,0
2018-01-07T07:38:21.332Z,0
2018-01-07T07:39:20.769Z,0
2018-01-07T07:40:21.057Z,0
2018-01-07T07:41:21.007Z,0
2018-01-07T07:42:21.514Z,5
2018-01-07T07:43:21.209Z,5
2018-01-07T07:44:20.918Z,5
2018-01-07T07:45:21.424Z,5
2018-01-07T07:46:20.930Z,5
2018-01-07T07:47:21.126Z,5
2018-01-07T07:48:21.637Z,5
2018-01-07T07:49:20.801Z,5
2018-01-07T07:50:21.049Z,5
2018-01-07T07:51:21.331Z,5
2018-01-07T07:52:20.735Z,5
2018-01-07T07:53:21.247Z,5
2018-01-07T07:54:20.961Z,10
2018-01-07T07:55:21.226Z,10
2018-01-07T07:56:21.173Z,10
2018-01-07T07:57:20.887Z,10
2018-01-07T07:58:20.856Z,10
2018-01-07T07:59:20.841Z,10
2018-01-07T08:00:21.346Z,10
2018-01-07T08:01:21.053Z,10
2018-01-07T08:02:21.303Z,10
2018-01-07T08:03:21.016Z,15
2018-01-07T08:04:21.255Z,15
2018-01-07T08:05:20.717Z,15
2018-01-07T08:06:20.734Z,15
2018-01-07T08:07:21.191Z,15
2018-01-07T08:08:20.655Z,15
2018-01-07T08:09:20.905Z,20
2018-01-07T08:10:20.594Z,20
2018-01-07T08:11:21.085Z,20
2018-01-07T08:12:20.802Z,20
2018-01-07T08:13:20.780Z,20
2018-01-07T08:14:20.521Z,20
2018-01-07T08:15:20.199Z,20
2018-01-07T08:16:20.710Z,20
2018-01-07T08:17:20.415Z,25
2018-01-07T08:18:20.426Z,25
2018-01-07T08:19:20.127Z,25
2018-01-07T08:20:20.413Z,25
2018-01-07T08:21:20.075Z,25
2018-01-07T08:22:20.594Z,30
2018-01-07T08:23:20.280Z,30
2018-01-07T08:24:20.555Z,30
2018-01-07T08:25:20.528Z,30
2018-01-07T08:26:20.502Z,35
2018-01-07T08:27:20.200Z,35
2018-01-07T08:28:20.169Z,35
2018-01-07T08:29:20.418Z,40
2018-01-07T08:30:20.834Z,40
2018-01-07T08:31:21.331Z,40
2018-01-07T08:32:20.340Z,40
2018-01-07T08:33:20.054Z,45
2018-01-07T08:34:20.311Z,45
2018-01-07T08:35:20.014Z,45
2018-01-07T08:36:19.740Z,50
2018-01-07T08:37:19.709Z,50
2018-01-07T08:38:20.215Z,50
2018-01-07T08:39:19.920Z,50
2018-01-07T08:40:20.455Z,55
2018-01-07T08:41:20.131Z,55
2018-01-07T08:42:19.580Z,55
2018-01-07T08:43:20.103Z,60
2018-01-07T08:44:19.801Z,60
2018-01-07T08:45:21.021Z,60
2018-01-07T08:46:19.752Z,65
2018-01-07T08:47:20.009Z,65
2018-01-07T08:48:19.975Z,65
2018-01-07T08:49:19.687Z,65
2018-01-07T08:50:19.928Z,70
2018-01-07T08:51:19.374Z,70
2018-01-07T08:52:19.087Z,70
2018-01-07T08:53:19.876Z,75
2018-01-07T08:54:19.847Z,75
2018-01-07T08:55:20.093Z,75
2018-01-07T08:56:19.524Z,80
2018-01-07T08:57:19.788Z,80
2018-01-07T08:58:19.490Z,80
2018-01-07T08:59:19.477Z,85
2018-01-07T09:00:19.989Z,85
2018-01-07T09:01:19.670Z,85
2018-01-07T09:02:19.665Z,85
2018-01-07T09:03:19.895Z,85
2018-01-07T09:04:19.864Z,90
2018-01-07T09:05:19.582Z,90
2018-01-07T09:06:19.042Z,90
2018-01-07T09:07:19.271Z,90
2018-01-07T09:08:19.238Z,90
2018-01-07T09:09:19.488Z,90
2018-01-07T09:10:19.210Z,90
2018-01-07T09:11:19.442Z,90
2018-01-07T09:12:18.630Z,90
2018-01-07T09:13:18.863Z,90
2018-01-07T09:14:19.374Z,90
2018-01-07T09:15:19.102Z,90
2018-01-07T09:16:19.092Z,90
2018-01-07T09:17:19.071Z,95
2018-01-07T09:18:20.307Z,95
2018-01-07T09:19:18.761Z,95
2018-01-07T09:20:51.345Z,100
2018-01-07T09:21:19.522Z,100
2018-01-07T09:22:18.928Z,100
2018-01-07T09:23:18.927Z,100
2018-01-07T09:24:18.611Z,100
2018-01-07T09:25:19.230Z,105
2018-01-07T09:26:18.832Z,105
2018-01-07T09:27:18.574Z,110
2018-01-07T09:28:18.810Z,110
2018-01-07T09:29:19.287Z,110
2018-01-07T09:30:19.282Z,115
2018-01-07T09:31:18.988Z,115
2018-01-07T09:32:18.425Z,120
2018-01-07T09:33:18.673Z,125
2018-01-07T09:34:18.381Z,125
2018-01-07T09:35:18.906Z,130
2018-01-07T09:36:18.362Z,130
2018-01-07T09:37:18.854Z,140
2018-01-07T09:38:18.028Z,135
2018-01-07T09:39:18.539Z,135
2018-01-07T09:40:18.551Z,135
2018-01-07T09:41:18.234Z,135
2018-01-07T09:42:18.475Z,140
2018-01-07T09:43:18.711Z,145
2018-01-07T09:44:18.155Z,155
2018-01-07T09:45:18.130Z,185
2018-01-07T09:46:18.385Z,235
2018-01-07T09:47:18.353Z,175
2018-01-07T09:48:18.072Z,150
2018-01-07T09:49:18.585Z,150
2018-01-07T09:50:18.562Z,155
2018-01-07T09:51:18.266Z,145
2018-01-07T09:52:18.798Z,155
2018-01-07T09:53:18.242Z,160
2018-01-07T09:54:18.220Z,145
2018-01-07T09:55:18.181Z,170
2018-01-07T09:56:18.173Z,230
2018-01-07T09:57:18.167Z,195
2018-01-07T09:58:18.386Z,155
2018-01-07T09:59:17.823Z,170
2018-01-07T10:00:18.129Z,200
2018-01-07T10:01:18.168Z,170
2018-01-07T10:02:18.037Z,160
2018-01-07T10:03:18.010Z,160
2018-01-07T10:04:18.095Z,150
2018-01-07T10:05:17.963Z,150
2018-01-07T10:06:17.940Z,170
2018-01-07T10:07:17.804Z,120
2018-01-07T10:08:17.675Z,125
2018-01-07T10:09:17.929Z,130
2018-01-07T10:10:17.593Z,115
2018-01-07T10:11:17.851Z,125
2018-01-07T10:12:17.854Z,115
2018-01-07T10:13:18.110Z,120
2018-01-07T10:14:18.133Z,110
2018-01-07T10:15:18.297Z,110
2018-01-07T10:16:17.732Z,115
2018-01-07T10:17:18.040Z,105
2018-01-07T10:18:18.064Z,110
2018-01-07T10:19:18.065Z,110
2018-01-07T10:20:18.189Z,100
2018-01-07T10:21:17.761Z,90
2018-01-07T10:22:17.747Z,90
2018-01-07T10:23:17.581Z,95
2018-01-07T10:24:17.568Z,110
2018-01-07T10:25:17.595Z,125
2018-01-07T10:26:17.805Z,120
2018-01-07T10:27:17.503Z,125
2018-01-07T10:28:17.471Z,135
2018-01-07T10:29:17.452Z,140
2018-01-07T10:30:17.723Z,145
2018-01-07T10:31:17.686Z,155
2018-01-07T10:32:17.677Z,150
2018-01-07T10:33:17.373Z,135
2018-01-07T10:34:17.629Z,135
2018-01-07T10:35:17.053Z,130
2018-01-07T10:36:17.325Z,120
2018-01-07T10:37:17.570Z,130
2018-01-07T10:38:17.273Z,120
2018-01-07T10:39:17.233Z,135
2018-01-07T10:40:17.233Z,150
2018-01-07T10:41:16.668Z,140
2018-01-07T10:42:16.904Z,130
2018-01-07T10:43:17.423Z,140
2018-01-07T10:44:17.692Z,145
2018-01-07T10:45:17.137Z,125
2018-01-07T10:46:17.090Z,125
2018-01-07T10:47:17.082Z,130
2018-01-07T10:48:17.301Z,140
2018-01-07T10:49:17.038Z,125
2018-01-07T10:50:17.280Z,140
2018-01-07T10:51:17.508Z,130
2018-01-07T10:52:17.512Z,125
2018-01-07T10:53:17.244Z,120
2018-01-07T10:54:16.644Z,140
2018-01-07T10:55:48.741Z,130
2018-01-07T10:56:16.606Z,145
2018-01-07T10:57:16.592Z,150
2018-01-07T10:58:16.305Z,145
2018-01-07T10:59:17.078Z,150
2018-01-07T11:00:17.066Z,175
2018-01-07T11:01:16.235Z,160
2018-01-07T11:02:17.146Z,160
2018-01-07T11:03:16.451Z,145
2018-01-07T11:04:16.689Z,145
2018-01-07T11:05:16.954Z,145
2018-01-07T11:06:16.675Z,165
2018-01-07T11:07:16.904Z,175
2018-01-07T11:08:16.611Z,150
2018-01-07T11:09:16.591Z,185
2018-01-07T11:10:16.028Z,205
2018-01-07T11:11:16.805Z,195
2018-01-07T11:12:16.258Z,180
2018-01-07T11:13:16.500Z,140
2018-01-07T11:14:16.797Z,140
2018-01-07T11:15:16.721Z,165
2018-01-07T11:16:16.707Z,165
2018-01-07T11:17:16.406Z,185
2018-01-07T11:18:16.411Z,180
2018-01-07T11:19:16.397Z,165
2018-01-07T11:20:16.347Z,175
2018-01-07T11:21:16.389Z,180
2018-01-07T11:22:16.582Z,195
2018-01-07T11:23:16.554Z,205
2018-01-07T11:24:16.545Z,210
2018-01-07T11:25:16.241Z,205
2018-01-07T11:26:16.485Z,190
2018-01-07T11:27:15.933Z,225
2018-01-07T11:28:16.178Z,260
2018-01-07T11:29:16.166Z,205
2018-01-07T11:30:16.409Z,215
2018-01-07T11:31:16.114Z,190
2018-01-07T11:32:16.647Z,215
2018-01-07T11:33:16.369Z,190
2018-01-07T11:34:16.050Z,165
2018-01-07T11:35:16.570Z,165
2018-01-07T11:36:16.277Z,170
2018-01-07T11:37:16.620Z,205
2018-01-07T11:38:15.978Z,205
2018-01-07T11:39:15.686Z,185
2018-01-07T11:40:16.190Z,170
2018-01-07T11:41:16.176Z,200
2018-01-07T11:42:15.666Z,205
2018-01-07T11:43:15.607Z,190
2018-01-07T11:44:15.893Z,185
2018-01-07T11:45:16.086Z,190
2018-01-07T11:46:16.064Z,205
2018-01-07T11:47:16.095Z,200
2018-01-07T11:48:16.299Z,210
2018-01-07T11:49:16.007Z,200
2018-01-07T11:50:16.258Z,155
2018-01-07T11:51:15.698Z,175
2018-01-07T11:52:15.944Z,175
2018-01-07T11:53:15.928Z,175
2018-01-07T11:54:15.364Z,175
2018-01-07T11:55:15.381Z,175
2018-01-07T11:56:15.868Z,190
2018-01-07T11:57:15.104Z,195
2018-01-07T11:58:15.577Z,185
2018-01-07T11:59:15.802Z,170
2018-01-07T12:00:15.299Z,180
2018-01-07T12:01:15.497Z,185
2018-01-07T12:02:16.014Z,155
2018-01-07T12:03:15.744Z,150
2018-01-07T12:04:15.160Z,180
2018-01-07T12:05:15.417Z,155
2018-01-07T12:06:15.397Z,175
2018-01-07T12:07:15.361Z,170
2018-01-07T12:08:15.606Z,165
2018-01-07T12:09:15.870Z,195
2018-01-07T12:10:15.849Z,165
2018-01-07T12:11:15.556Z,180
2018-01-07T12:12:15.256Z,170
2018-01-07T12:13:14.975Z,170
2018-01-07T12:14:15.789Z,185
2018-01-07T12:15:15.520Z,175
2018-01-07T12:16:15.183Z,180
2018-01-07T12:17:15.411Z,160
2018-01-07T12:18:15.134Z,165
2018-01-07T12:19:15.108Z,160
2018-01-07T12:20:15.355Z,220
2018-01-07T12:21:15.419Z,150
2018-01-07T12:22:15.669Z,195
2018-01-07T12:23:14.772Z,315
2018-01-07T12:24:15.009Z,240
2018-01-07T12:25:15.267Z,355
2018-01-07T12:26:14.702Z,155
2018-01-07T12:27:14.683Z,190
2018-01-07T12:28:14.930Z,120
2018-01-07T12:29:14.641Z,170
2018-01-07T12:30:15.201Z,130
2018-01-07T12:31:15.645Z,130
2018-01-07T12:32:14.900Z,340
2018-01-07T12:33:14.627Z,125
2018-01-07T12:34:15.284Z,125
2018-01-07T12:35:14.567Z,120
2018-01-07T12:36:14.779Z,305
2018-01-07T12:37:15.023Z,150
2018-01-07T12:38:14.465Z,135
2018-01-07T12:39:14.729Z,125
2018-01-07T12:40:14.458Z,170
2018-01-07T12:41:14.962Z,135
2018-01-07T12:42:14.921Z,250
2018-01-07T12:43:14.652Z,270
2018-01-07T12:44:14.607Z,305
2018-01-07T12:45:15.126Z,315
2018-01-07T12:46:15.143Z,195
2018-01-07T12:47:14.815Z,350
2018-01-07T12:48:14.805Z,270
2018-01-07T12:49:14.276Z,275
2018-01-07T12:50:15.044Z,185
2018-01-07T12:51:14.485Z,290
2018-01-07T12:52:14.211Z,225
2018-01-07T12:53:14.446Z,330
2018-01-07T12:54:14.689Z,130
2018-01-07T12:55:14.145Z,135
2018-01-07T12:56:14.133Z,325
2018-01-07T12:57:14.659Z,145
2018-01-07T12:58:14.995Z,315
2018-01-07T12:59:14.679Z,315
2018-01-07T13:00:14.348Z,305
2018-01-07T13:01:14.844Z,295
2018-01-07T13:02:14.842Z,315
2018-01-07T13:03:14.548Z,310
2018-01-07T13:04:14.798Z,290
2018-01-07T13:05:13.974Z,285
2018-01-07T13:06:14.727Z,265
2018-01-07T13:07:14.504Z,265
2018-01-07T13:08:14.464Z,285
2018-01-07T13:09:13.934Z,295
2018-01-07T13:10:14.174Z,265
2018-01-07T13:11:14.692Z,275
2018-01-07T13:12:14.395Z,175
2018-01-07T13:13:13.847Z,215
2018-01-07T13:14:14.362Z,270
2018-01-07T13:15:13.819Z,120
2018-01-07T13:16:13.539Z,270
2018-01-07T13:17:14.355Z,150
2018-01-07T13:18:14.040Z,245
2018-01-07T13:19:14.288Z,155
2018-01-07T13:20:13.493Z,155
2018-01-07T13:21:14.537Z,255
2018-01-07T13:22:14.254Z,250
2018-01-07T13:23:13.701Z,220
2018-01-07T13:24:14.484Z,215
2018-01-07T13:25:13.938Z,250
2018-01-07T13:26:14.189Z,240
2018-01-07T13:27:14.472Z,225
2018-01-07T13:28:14.165Z,230
2018-01-07T13:29:14.433Z,235
2018-01-07T13:30:14.670Z,235
2018-01-07T13:31:14.130Z,230
2018-01-07T13:32:13.842Z,240
2018-01-07T13:33:14.095Z,235
2018-01-07T13:34:13.813Z,225
2018-01-07T13:35:13.536Z,225
2018-01-07T13:36:14.509Z,225
2018-01-07T13:37:14.028Z,225
2018-01-07T13:38:13.274Z,220
2018-01-07T13:39:13.744Z,225
2018-01-07T13:40:13.986Z,225
2018-01-07T13:41:13.438Z,220
2018-01-07T13:42:13.691Z,220
2018-01-07T13:43:14.208Z,225
2018-01-07T13:44:13.940Z,220
2018-01-07T13:45:13.654Z,215
2018-01-07T13:46:13.640Z,215
2018-01-07T13:47:13.886Z,220
2018-01-07T13:48:13.609Z,220
2018-01-07T13:49:13.388Z,215
2018-01-07T13:50:13.855Z,215
2018-01-07T13:51:13.306Z,205
2018-01-07T13:52:13.866Z,195
2018-01-07T13:53:13.811Z,185
2018-01-07T13:54:13.852Z,165
2018-01-07T13:55:13.776Z,135
2018-01-07T13:56:13.249Z,100
2018-01-07T13:57:13.489Z,95
2018-01-07T13:58:13.744Z,85
2018-01-07T13:59:13.194Z,85
2018-01-07T14:00:13.984Z,80
2018-01-07T14:01:13.434Z,75
2018-01-07T14:02:13.689Z,75
2018-01-07T14:03:13.666Z,75
2018-01-07T14:04:13.650Z,75
2018-01-07T14:05:13.640Z,75
2018-01-07T14:06:13.361Z,75
2018-01-07T14:07:13.869Z,70
2018-01-07T14:08:13.327Z,70
2018-01-07T14:09:13.617Z,70
2018-01-07T14:10:13.566Z,70
2018-01-07T14:11:13.271Z,70
2018-01-07T14:12:13.255Z,70
2018-01-07T14:13:12.971Z,70
2018-01-07T14:14:13.221Z,70
2018-01-07T14:15:13.472Z,65
2018-01-07T14:16:13.706Z,70
2018-01-07T14:17:13.456Z,75
2018-01-07T14:18:13.678Z,75
2018-01-07T14:19:13.676Z,65
2018-01-07T14:20:13.374Z,65
2018-01-07T14:21:13.617Z,65
2018-01-07T14:22:13.069Z,65
2018-01-07T14:23:13.319Z,65